Time;durP1;ratioP1;P1;durP2;ratioP2;P2;SDS_P1;SDS_P2;PMS_P1;PMS_P2;Temp;Humidity;BMP_temperature;BMP_pressure;BME280_temperature;BME280_humidity;BME280_pressure;Samples;Min_cycle;Max_cycle;Signal;HPM_P1;HPM_P2
2020/12/18 00:01:18;;;;;;;10.73;9.88;;;5.50;99.90;;;;;;5062587;28;20045;-74
2020/12/18 00:03:44;;;;;;;10.57;9.73;;;5.40;99.90;;;;;;5063347;28;20087;-75
2020/12/18 00:06:11;;;;;;;11.15;10.25;;;5.40;99.90;;;;;;5062554;28;20060;-75
2020/12/18 00:08:38;;;;;;;13.38;10.45;;;5.40;99.90;;;;;;5063599;28;20135;-75
2020/12/18 00:11:05;;;;;;;13.68;11.35;;;5.40;99.90;;;;;;5062112;28;20059;-74
2020/12/18 00:13:31;;;;;;;12.77;11.55;;;5.40;99.90;;;;;;5053768;28;20044;-74
2020/12/18 00:15:58;;;;;;;12.90;11.75;;;5.40;99.90;;;;;;5060916;28;20056;-74
2020/12/18 00:18:24;;;;;;;13.48;12.02;;;5.30;99.90;;;;;;5046355;28;20156;-75
2020/12/18 00:20:55;;;;;;;13.32;12.05;;;5.20;99.90;;;;;;5062662;28;20464;-75
2020/12/18 00:23:21;;;;;;;12.95;11.73;;;5.10;99.90;;;;;;5046475;28;20105;-74
2020/12/18 00:25:49;;;;;;;13.15;11.90;;;5.00;99.90;;;;;;5045611;28;20440;-74
2020/12/18 00:28:16;;;;;;;13.55;11.75;;;4.90;99.90;;;;;;5028949;28;20106;-75
2020/12/18 00:30:45;;;;;;;12.85;11.75;;;4.90;99.90;;;;;;5062412;28;20055;-74
2020/12/18 00:33:11;;;;;;;13.25;12.07;;;4.80;99.90;;;;;;5064426;28;20079;-74
2020/12/18 00:35:37;;;;;;;14.18;12.73;;;4.80;99.90;;;;;;5064218;28;20048;-73
2020/12/18 00:38:04;;;;;;;12.60;11.43;;;4.80;99.90;;;;;;5045702;28;20139;-74
2020/12/18 00:40:30;;;;;;;13.20;12.02;;;4.80;99.90;;;;;;5045493;28;20653;-74
2020/12/18 00:42:57;;;;;;;13.57;12.48;;;4.80;99.90;;;;;;5054445;28;20082;-74
2020/12/18 00:45:23;;;;;;;13.18;12.00;;;4.70;99.90;;;;;;5063664;28;20052;-74
2020/12/18 00:47:50;;;;;;;13.27;12.07;;;4.70;99.90;;;;;;5048637;28;20048;-74
2020/12/18 00:50:16;;;;;;;16.45;11.93;;;4.80;99.90;;;;;;5066274;28;20052;-74
2020/12/18 00:52:43;;;;;;;16.08;11.63;;;4.80;99.90;;;;;;5050156;28;20707;-74
2020/12/18 00:55:09;;;;;;;15.02;13.20;;;4.80;99.90;;;;;;5048114;28;20241;-75
2020/12/18 00:57:36;;;;;;;13.68;12.35;;;4.80;99.90;;;;;;5029790;28;20107;-73
2020/12/18 01:00:07;;;;;;;15.65;13.70;;;4.80;99.90;;;;;;5030503;28;20060;-74
2020/12/18 01:02:53;;;;;;;14.02;12.60;;;4.70;99.90;;;;;;5063201;28;20045;-74
2020/12/18 01:05:19;;;;;;;15.85;13.43;;;4.70;99.90;;;;;;5029612;28;20144;-74
2020/12/18 01:07:46;;;;;;;13.18;11.82;;;4.70;99.90;;;;;;5046766;28;20299;-75
2020/12/18 01:10:13;;;;;;;14.43;13.20;;;4.80;99.90;;;;;;5034914;28;20078;-74
2020/12/18 01:12:39;;;;;;;13.23;12.13;;;4.90;99.90;;;;;;5041822;28;20480;-74
2020/12/18 01:15:05;;;;;;;14.43;13.18;;;5.00;99.90;;;;;;5065929;28;20138;-74
2020/12/18 01:17:33;;;;;;;12.60;11.70;;;5.10;99.90;;;;;;5049596;28;20106;-73
2020/12/18 01:20:00;;;;;;;13.65;12.48;;;5.20;99.90;;;;;;5035744;28;20139;-74
2020/12/18 01:22:27;;;;;;;16.02;13.13;;;5.20;99.90;;;;;;5049810;28;20047;-74
2020/12/18 01:24:53;;;;;;;16.42;13.85;;;5.30;99.90;;;;;;5066709;28;20071;-74
2020/12/18 01:27:20;;;;;;;14.77;13.43;;;5.30;99.90;;;;;;5049112;28;20048;-75
2020/12/18 01:29:48;;;;;;;16.30;13.52;;;5.30;99.90;;;;;;5065862;28;20053;-75
2020/12/18 01:32:15;;;;;;;16.38;14.35;;;5.40;99.90;;;;;;5066197;28;20055;-75
2020/12/18 01:34:45;;;;;;;14.98;13.88;;;5.40;99.90;;;;;;5049135;28;20051;-75
2020/12/18 01:37:16;;;;;;;15.63;14.23;;;5.40;99.90;;;;;;5049832;28;20486;-75
2020/12/18 01:39:51;;;;;;;14.38;13.18;;;5.40;99.90;;;;;;5049216;28;20048;-75
2020/12/18 01:42:23;;;;;;;16.23;14.73;;;5.50;99.90;;;;;;5065335;28;20044;-75
2020/12/18 01:44:49;;;;;;;14.85;13.75;;;5.40;99.90;;;;;;5066480;28;20125;-75
2020/12/18 01:47:29;;;;;;;15.18;13.73;;;5.30;99.90;;;;;;5048698;28;20120;-74
2020/12/18 01:50:01;;;;;;;15.73;14.25;;;5.40;99.90;;;;;;5033571;28;20049;-75
2020/12/18 01:52:29;;;;;;;14.65;13.35;;;5.40;99.90;;;;;;5065807;28;20139;-76
2020/12/18 01:55:04;;;;;;;14.98;13.43;;;5.50;99.90;;;;;;5048679;28;20045;-73
2020/12/18 01:57:37;;;;;;;16.17;14.57;;;5.50;99.90;;;;;;5048465;28;20718;-75
2020/12/18 02:00:06;;;;;;;14.85;13.07;;;5.60;99.90;;;;;;5048450;28;20139;-75
2020/12/18 02:02:42;;;;;;;15.60;12.95;;;5.60;99.90;;;;;;5064679;28;20056;-75
2020/12/18 02:05:27;;;;;;;14.07;12.80;;;5.60;99.90;;;;;;5048479;28;20042;-76
2020/12/18 02:08:02;;;;;;;15.05;13.32;;;5.70;99.90;;;;;;5049462;28;20052;-75
2020/12/18 02:11:04;;;;;;;;;;;5.60;99.90;;;;;;5052554;28;20048;-75
2020/12/18 02:13:32;;;;;;;15.32;13.82;;;5.60;99.90;;;;;;5042192;28;20347;-75
2020/12/18 02:15:59;;;;;;;15.30;13.77;;;5.60;99.90;;;;;;5047841;28;20112;-74
2020/12/18 02:18:36;;;;;;;13.30;12.02;;;5.60;99.90;;;;;;5049129;28;20137;-74
2020/12/18 02:21:03;;;;;;;15.55;12.65;;;5.60;99.90;;;;;;5048265;28;20703;-73
2020/12/18 02:23:32;;;;;;;13.95;12.65;;;5.50;99.90;;;;;;5032776;28;20119;-73
2020/12/18 02:26:08;;;;;;;14.32;12.93;;;5.60;99.90;;;;;;5048439;28;20135;-74
2020/12/18 02:28:45;;;;;;;12.85;11.98;;;5.50;99.90;;;;;;5036036;28;20151;-73
2020/12/18 02:31:14;;;;;;;13.77;12.77;;;5.40;99.90;;;;;;5044414;28;20048;-74
2020/12/18 02:33:51;;;;;;;14.45;13.40;;;5.30;99.90;;;;;;5044709;28;20091;-74
2020/12/18 02:36:25;;;;;;;15.25;13.93;;;5.20;99.90;;;;;;5050046;28;20060;-74
2020/12/18 02:39:00;;;;;;;15.55;14.23;;;5.10;99.90;;;;;;5029862;28;20268;-73
2020/12/18 02:41:28;;;;;;;15.80;14.30;;;5.00;99.90;;;;;;5058984;28;20048;-74
2020/12/18 02:43:59;;;;;;;15.45;14.25;;;5.10;99.90;;;;;;5045527;28;20048;-73
2020/12/18 02:46:25;;;;;;;17.95;14.85;;;5.00;99.90;;;;;;5047588;28;20374;-74
2020/12/18 02:48:54;;;;;;;16.17;14.55;;;4.90;99.90;;;;;;5064925;28;20375;-74
2020/12/18 02:51:36;;;;;;;16.20;14.80;;;4.80;99.90;;;;;;5063948;28;20669;-77
2020/12/18 02:54:31;;;;;;;16.05;14.63;;;4.80;99.90;;;;;;5023291;28;20407;-74
2020/12/18 02:57:28;;;;;;;15.13;13.23;;;4.70;99.90;;;;;;5031284;28;20110;-74
2020/12/18 03:00:09;;;;;;;14.48;12.98;;;4.60;99.90;;;;;;5027648;28;20081;-74
2020/12/18 03:02:39;;;;;;;14.02;12.48;;;4.50;99.90;;;;;;5027257;28;20103;-74
2020/12/18 03:05:07;;;;;;;16.35;13.60;;;4.60;99.90;;;;;;5044060;28;20048;-74
2020/12/18 03:07:45;;;;;;;15.23;13.80;;;4.70;99.90;;;;;;5046581;28;20052;-74
2020/12/18 03:10:11;;;;;;;14.85;13.32;;;4.50;99.90;;;;;;5047064;28;20106;-74
2020/12/18 03:12:38;;;;;;;14.43;13.02;;;4.50;99.90;;;;;;5036050;28;20044;-74
2020/12/18 03:15:04;;;;;;;21.63;14.75;;;4.40;99.90;;;;;;5045747;28;20059;-75
2020/12/18 03:17:50;;;;;;;15.07;13.57;;;4.30;99.90;;;;;;5060932;28;20422;-74
2020/12/18 03:20:16;;;;;;;15.45;14.02;;;4.20;99.90;;;;;;5026983;28;20106;-74
2020/12/18 03:23:04;;;;;;;17.17;14.32;;;4.20;99.90;;;;;;5045463;28;20052;-73
2020/12/18 03:25:56;;;;;;;15.93;14.43;;;4.10;99.90;;;;;;5045120;28;20043;-75
2020/12/18 03:28:29;;;;;;;17.15;14.63;;;4.00;99.90;;;;;;5035751;28;20061;-75
2020/12/18 03:30:56;;;;;;;16.55;14.20;;;4.10;99.90;;;;;;5043949;28;20072;-74
2020/12/18 03:33:23;;;;;;;15.52;13.95;;;4.00;99.90;;;;;;5044129;28;20127;-75
2020/12/18 03:35:58;;;;;;;15.43;13.90;;;4.10;99.90;;;;;;5060163;28;20045;-75
2020/12/18 03:38:24;;;;;;;17.02;13.73;;;4.00;99.90;;;;;;5063847;28;20068;-75
2020/12/18 03:40:51;;;;;;;15.23;13.63;;;4.00;99.90;;;;;;5038489;28;20060;-76
2020/12/18 03:43:22;;;;;;;17.67;15.07;;;4.00;99.90;;;;;;5052340;28;20056;-76
2020/12/18 03:45:48;;;;;;;17.85;14.07;;;3.90;99.90;;;;;;5043294;28;20129;-76
2020/12/18 03:48:29;;;;;;;18.27;14.52;;;3.90;99.90;;;;;;5027749;28;20575;-75
2020/12/18 03:51:28;;;;;;;19.75;14.60;;;3.80;99.90;;;;;;5043194;28;20280;-75
2020/12/18 03:53:54;;;;;;;19.92;13.63;;;3.70;99.90;;;;;;5054092;28;20062;-76
2020/12/18 03:56:41;;;;;;;18.35;13.45;;;3.70;99.90;;;;;;5062589;28;20061;-75
2020/12/18 03:59:20;;;;;;;22.25;14.65;;;3.60;99.90;;;;;;5048798;28;20057;-76
2020/12/18 04:02:06;;;;;;;24.35;14.75;;;3.60;99.90;;;;;;5031688;28;20049;-75
2020/12/18 04:04:35;;;;;;;18.45;15.27;;;3.50;99.90;;;;;;5030575;28;20048;-75
2020/12/18 04:07:04;;;;;;;20.95;14.98;;;3.50;99.90;;;;;;5046294;28;20721;-76
2020/12/18 04:09:31;;;;;;;22.88;16.02;;;3.40;99.90;;;;;;5046765;28;20048;-76
2020/12/18 04:12:03;;;;;;;22.02;15.98;;;3.40;99.90;;;;;;5042380;28;20072;-76
2020/12/18 04:14:45;;;;;;;18.30;14.98;;;3.40;99.90;;;;;;5011922;28;20084;-76
2020/12/18 04:17:17;;;;;;;17.52;15.30;;;3.40;99.90;;;;;;5034172;28;20501;-76
2020/12/18 04:19:49;;;;;;;20.88;16.30;;;3.30;99.90;;;;;;5062549;28;20094;-75
2020/12/18 04:22:15;;;;;;;22.17;16.13;;;3.20;99.90;;;;;;5044628;28;20052;-76
2020/12/18 04:24:56;;;;;;;19.90;14.98;;;3.30;99.90;;;;;;5062911;28;20067;-76
2020/12/18 04:27:24;;;;;;;17.95;15.30;;;3.40;99.90;;;;;;5043751;28;20140;-76
2020/12/18 04:29:51;;;;;;;22.55;15.13;;;3.40;99.90;;;;;;5042411;28;20049;-76
2020/12/18 04:32:21;;;;;;;20.88;14.60;;;3.40;99.90;;;;;;5025886;28;20589;-76
2020/12/18 04:34:47;;;;;;;19.55;14.80;;;3.30;99.90;;;;;;5055005;28;20054;-75
2020/12/18 04:37:26;;;;;;;26.50;15.02;;;3.30;99.90;;;;;;5045023;28;20048;-76
2020/12/18 04:40:11;;;;;;;;;;;3.40;99.90;;;;;;5063000;28;20057;-76
2020/12/18 04:42:56;;;;;;;21.15;14.82;;;3.20;99.90;;;;;;5038484;28;20011;-76
2020/12/18 04:45:23;;;;;;;20.40;15.43;;;3.20;99.90;;;;;;5062171;28;20163;-75
2020/12/18 04:47:57;;;;;;;25.52;16.48;;;3.20;99.90;;;;;;5046469;28;20052;-76
2020/12/18 04:50:26;;;;;;;25.30;16.27;;;3.20;99.90;;;;;;5045618;28;20056;-76
2020/12/18 04:53:11;;;;;;;25.10;15.57;;;3.20;99.90;;;;;;5046709;28;20084;-73
2020/12/18 04:55:54;;;;;;;21.95;14.77;;;3.10;99.90;;;;;;5045987;28;20205;-76
2020/12/18 04:58:25;;;;;;;24.02;15.70;;;3.00;99.90;;;;;;5046417;28;20048;-76
2020/12/18 05:00:56;;;;;;;24.10;15.63;;;3.00;99.90;;;;;;5063148;28;20409;-76
2020/12/18 05:03:52;;;;;;;28.33;16.92;;;3.10;99.90;;;;;;5045400;28;20036;-76
2020/12/18 05:06:19;;;;;;;26.15;16.92;;;3.10;99.90;;;;;;5061825;28;20048;-75
2020/12/18 05:08:46;;;;;;;25.60;17.30;;;3.10;99.90;;;;;;5046220;28;20049;-76
2020/12/18 05:11:23;;;;;;;25.00;17.52;;;3.10;99.90;;;;;;5044076;28;20044;-76
2020/12/18 05:13:56;;;;;;;30.08;18.13;;;3.10;99.90;;;;;;5026291;28;20117;-76
2020/12/18 05:16:24;;;;;;;28.02;18.42;;;3.00;99.90;;;;;;5028513;28;20044;-76
2020/12/18 05:19:07;;;;;;;28.05;17.88;;;2.90;99.90;;;;;;5046419;28;20163;-76
2020/12/18 05:22:06;;;;;;;23.48;16.27;;;2.90;99.90;;;;;;5028526;28;20067;-75
2020/12/18 05:25:07;;;;;;;30.02;18.27;;;3.00;99.90;;;;;;5032768;28;20045;-76
2020/12/18 05:27:41;;;;;;;28.15;17.40;;;2.90;99.90;;;;;;5061822;28;20076;-76
2020/12/18 05:30:09;;;;;;;27.70;17.90;;;2.90;99.90;;;;;;5028397;28;20125;-76
2020/12/18 05:32:36;;;;;;;27.50;17.52;;;3.00;99.90;;;;;;5061680;28;20044;-73
2020/12/18 05:35:16;;;;;;;25.77;16.48;;;2.90;99.90;;;;;;5063582;28;20513;-75
2020/12/18 05:38:04;;;;;;;28.08;15.48;;;2.90;99.90;;;;;;5062521;28;20049;-76
2020/12/18 05:41:02;;;;;;;23.65;14.65;;;2.90;99.90;;;;;;5035369;28;20056;-77
2020/12/18 05:43:42;;;;;;;25.23;14.10;;;3.00;99.90;;;;;;5028771;28;20044;-76
2020/12/18 05:46:34;;;;;;;22.92;14.40;;;3.00;99.90;;;;;;5040527;28;20431;-76
2020/12/18 05:49:06;;;;;;;23.52;14.73;;;3.00;99.90;;;;;;5048968;28;20117;-76
2020/12/18 05:51:40;;;;;;;20.65;14.27;;;3.00;99.90;;;;;;5047226;28;20492;-76
2020/12/18 05:54:33;;;;;;;21.70;13.68;;;3.10;99.90;;;;;;5052227;28;20056;-76
2020/12/18 05:57:11;;;;;;;20.73;14.05;;;3.00;99.90;;;;;;5031329;28;20055;-74
2020/12/18 05:59:42;;;;;;;22.45;14.43;;;3.00;99.90;;;;;;5032286;28;20048;-74
2020/12/18 06:02:17;;;;;;;24.73;14.80;;;2.90;99.90;;;;;;5065849;28;20118;-74
2020/12/18 06:05:01;;;;;;;20.48;14.65;;;2.90;99.90;;;;;;5064697;28;20056;-75
2020/12/18 06:07:54;;;;;;;22.48;14.68;;;2.90;99.90;;;;;;5063187;28;20083;-74
2020/12/18 06:10:28;;;;;;;20.20;13.48;;;2.80;99.90;;;;;;5047477;28;20044;-74
2020/12/18 06:13:19;;;;;;;21.08;14.40;;;2.80;99.90;;;;;;5049852;28;20071;-75
2020/12/18 06:15:59;;;;;;;20.23;13.63;;;2.80;99.90;;;;;;5048124;28;20431;-75
2020/12/18 06:18:43;;;;;;;26.42;14.88;;;2.80;99.90;;;;;;5050115;28;20037;-73
2020/12/18 06:21:17;;;;;;;22.70;14.95;;;2.70;99.90;;;;;;5031473;28;20040;-74
2020/12/18 06:23:45;;;;;;;23.63;14.93;;;2.70;99.90;;;;;;5064447;28;20105;-74
2020/12/18 06:26:32;;;;;;;18.42;12.07;;;2.70;99.90;;;;;;5032350;28;20056;-74
2020/12/18 06:29:16;;;;;;;18.95;12.82;;;2.70;99.90;;;;;;5063847;28;20106;-74
2020/12/18 06:32:30;;;;;;;17.30;12.45;;;2.70;99.90;;;;;;5043601;28;20044;-76
2020/12/18 06:35:27;;;;;;;19.38;13.02;;;2.50;99.90;;;;;;5036062;28;20076;-73
2020/12/18 06:38:15;;;;;;;17.35;12.32;;;2.40;99.90;;;;;;5043844;28;20124;-74
2020/12/18 06:40:54;;;;;;;24.50;14.02;;;2.40;99.90;;;;;;5047424;28;20516;-74
2020/12/18 06:43:41;;;;;;;20.95;13.13;;;2.50;99.90;;;;;;5021137;28;20473;-77
2020/12/18 06:46:19;;;;;;;25.52;13.50;;;2.40;99.90;;;;;;5019651;28;20113;-74
2020/12/18 06:49:04;;;;;;;19.38;12.65;;;2.50;99.90;;;;;;5050559;28;20041;-74
2020/12/18 06:51:49;;;;;;;20.35;13.05;;;2.60;99.90;;;;;;5056402;28;20048;-74
2020/12/18 06:54:55;;;;;;;17.98;11.60;;;2.70;99.90;;;;;;5045415;28;20752;-74
2020/12/18 06:57:22;;;;;;;18.00;11.20;;;2.70;99.90;;;;;;5046725;28;20090;-74
2020/12/18 06:59:48;;;;;;;19.13;10.75;;;2.70;99.90;;;;;;5063545;28;20118;-73
2020/12/18 07:02:34;;;;;;;18.65;11.55;;;2.70;99.90;;;;;;5046995;28;20109;-74
2020/12/18 07:05:00;;;;;;;20.83;11.98;;;2.70;99.90;;;;;;5046884;28;20056;-75
2020/12/18 07:07:26;;;;;;;16.75;10.85;;;2.70;99.90;;;;;;5064752;28;20052;-76
2020/12/18 07:09:53;;;;;;;16.88;10.82;;;2.70;99.90;;;;;;5057501;28;20139;-74
2020/12/18 07:12:21;;;;;;;21.63;12.20;;;2.70;99.90;;;;;;5054306;28;20059;-73
2020/12/18 07:14:53;;;;;;;17.50;9.93;;;2.70;99.90;;;;;;5047084;28;20052;-74
2020/12/18 07:17:21;;;;;;;23.80;11.27;;;2.70;99.90;;;;;;5062395;28;20151;-74
2020/12/18 07:19:47;;;;;;;18.38;10.95;;;2.70;99.90;;;;;;5080761;28;20064;-74
2020/12/18 07:22:21;;;;;;;19.58;11.43;;;2.70;99.90;;;;;;5047009;28;20044;-73
2020/12/18 07:24:48;;;;;;;19.20;11.68;;;2.70;99.90;;;;;;5046823;28;20125;-74
2020/12/18 07:27:14;;;;;;;20.95;11.30;;;2.70;99.90;;;;;;5046294;28;20436;-74
2020/12/18 07:29:41;;;;;;;20.85;12.38;;;2.60;99.90;;;;;;5062279;28;20044;-76
2020/12/18 07:32:07;;;;;;;19.10;11.23;;;2.60;99.90;;;;;;5063780;28;20056;-74
2020/12/18 07:34:33;;;;;;;19.15;11.80;;;2.60;99.90;;;;;;5064642;28;20131;-74
2020/12/18 07:37:13;;;;;;;22.48;12.93;;;2.60;99.90;;;;;;5062235;28;20194;-74
2020/12/18 07:39:40;;;;;;;19.60;12.00;;;2.60;99.90;;;;;;5065545;28;20079;-74
2020/12/18 07:42:07;;;;;;;21.02;11.93;;;2.50;99.90;;;;;;5056419;28;20055;-74
2020/12/18 07:44:33;;;;;;;22.48;11.88;;;2.50;99.90;;;;;;5063931;28;20065;-75
2020/12/18 07:47:00;;;;;;;19.88;12.25;;;2.50;99.90;;;;;;5063212;28;20059;-74
2020/12/18 07:49:27;;;;;;;18.98;12.15;;;2.50;99.90;;;;;;5064655;28;20509;-75
2020/12/18 07:51:55;;;;;;;21.75;12.40;;;2.50;99.90;;;;;;5046366;28;20143;-74
2020/12/18 07:54:22;;;;;;;21.40;12.93;;;2.50;99.90;;;;;;5047164;28;20056;-74
2020/12/18 07:56:48;;;;;;;17.25;11.32;;;2.50;99.90;;;;;;5056805;28;20457;-75
2020/12/18 07:59:14;;;;;;;17.77;10.50;;;2.50;99.90;;;;;;5047011;28;20056;-75
2020/12/18 08:01:41;;;;;;;20.38;11.00;;;2.50;99.90;;;;;;5058912;28;20381;-74
2020/12/18 08:04:12;;;;;;;17.52;11.50;;;2.50;99.90;;;;;;5046480;28;20122;-74
2020/12/18 08:06:40;;;;;;;18.52;10.73;;;2.60;99.90;;;;;;5046122;28;20127;-74
2020/12/18 08:09:11;;;;;;;17.48;11.73;;;2.60;99.90;;;;;;5047159;28;20113;-75
2020/12/18 08:11:42;;;;;;;27.50;11.70;;;2.70;99.90;;;;;;5040721;28;20041;-75
2020/12/18 08:14:11;;;;;;;24.38;11.65;;;2.70;99.90;;;;;;5062005;28;20141;-74
2020/12/18 08:16:38;;;;;;;14.65;10.07;;;2.80;99.90;;;;;;5061061;28;20044;-75
2020/12/18 08:19:11;;;;;;;15.25;10.98;;;2.80;99.90;;;;;;5030545;28;20048;-75
2020/12/18 08:21:40;;;;;;;17.43;10.63;;;2.90;99.90;;;;;;5064109;28;20056;-75
2020/12/18 08:24:30;;;;;;;16.58;10.90;;;3.00;99.90;;;;;;5064135;28;20052;-75
2020/12/18 08:27:02;;;;;;;15.55;9.38;;;3.20;99.90;;;;;;5046066;28;20592;-72
2020/12/18 08:29:31;;;;;;;16.63;10.60;;;3.40;99.90;;;;;;5032400;28;20101;-73
2020/12/18 08:32:00;;;;;;;14.60;10.40;;;3.40;99.90;;;;;;5061685;28;20049;-74
2020/12/18 08:34:29;;;;;;;17.77;11.35;;;3.50;99.90;;;;;;5030045;28;20075;-73
2020/12/18 08:36:56;;;;;;;16.92;11.57;;;3.70;99.90;;;;;;5028161;28;20056;-74
2020/12/18 08:39:22;;;;;;;16.40;10.95;;;3.80;99.90;;;;;;5063696;28;20053;-73
2020/12/18 08:41:54;;;;;;;16.20;10.98;;;3.80;99.90;;;;;;5056014;28;20110;-73
2020/12/18 08:44:27;;;;;;;17.05;11.73;;;3.90;99.90;;;;;;5045842;28;20062;-73
2020/12/18 08:46:54;;;;;;;14.27;10.25;;;4.00;99.90;;;;;;5045567;28;20079;-74
2020/12/18 08:49:25;;;;;;;14.63;10.55;;;4.10;99.90;;;;;;5063211;28;20156;-73
2020/12/18 08:51:53;;;;;;;15.25;11.18;;;4.20;99.90;;;;;;5062507;28;20429;-75
2020/12/18 08:54:26;;;;;;;11.75;10.02;;;4.50;99.90;;;;;;5065169;28;20055;-72
2020/12/18 08:57:24;;;;;;;12.45;10.45;;;4.60;99.90;;;;;;5014318;28;20498;-75
2020/12/18 09:00:17;;;;;;;12.57;11.25;;;4.70;99.90;;;;;;5025701;28;20175;-72
2020/12/18 09:02:50;;;;;;;14.43;10.95;;;4.90;99.90;;;;;;5036724;28;20148;-73
2020/12/18 09:05:27;;;;;;;14.13;11.10;;;4.90;99.90;;;;;;5043946;28;20059;-74
2020/12/18 09:08:01;;;;;;;14.18;11.10;;;4.90;99.90;;;;;;5026687;28;20135;-72
2020/12/18 09:10:44;;;;;;;14.40;11.63;;;5.00;99.90;;;;;;5036767;28;20048;-73
2020/12/18 09:13:16;;;;;;;13.43;12.02;;;5.00;99.90;;;;;;5067691;28;20135;-73
2020/12/18 09:15:45;;;;;;;13.60;11.90;;;5.20;99.90;;;;;;5066368;28;20040;-74
2020/12/18 09:18:14;;;;;;;13.23;12.15;;;5.30;99.90;;;;;;5066839;28;20669;-73
2020/12/18 09:20:44;;;;;;;14.20;13.00;;;5.40;99.90;;;;;;5065350;28;20041;-73
2020/12/18 09:23:13;;;;;;;14.90;13.32;;;5.50;99.90;;;;;;5033419;28;20075;-74
2020/12/18 09:25:47;;;;;;;15.07;13.02;;;5.50;99.90;;;;;;5049294;28;20045;-73
2020/12/18 09:28:20;;;;;;;14.23;13.03;;;5.70;99.90;;;;;;5071275;28;20424;-73
2020/12/18 09:30:49;;;;;;;14.23;13.05;;;5.90;99.90;;;;;;5065537;28;20674;-73
2020/12/18 09:33:18;;;;;;;14.98;13.63;;;6.00;99.90;;;;;;5083152;28;20044;-72
2020/12/18 09:35:44;;;;;;;13.93;12.93;;;6.30;99.90;;;;;;5048737;28;20125;-73
2020/12/18 09:38:11;;;;;;;14.77;13.32;;;6.40;99.90;;;;;;5049390;28;20098;-74
2020/12/18 09:40:38;;;;;;;15.93;14.45;;;6.40;99.90;;;;;;5049199;28;20051;-73
2020/12/18 09:43:04;;;;;;;15.05;13.85;;;6.50;99.90;;;;;;5040547;28;20568;-73
2020/12/18 09:45:43;;;;;;;14.75;13.27;;;6.50;99.90;;;;;;5065604;28;20124;-74
2020/12/18 09:48:09;;;;;;;13.18;12.27;;;6.60;99.90;;;;;;5033424;28;20067;-73
2020/12/18 09:50:36;;;;;;;13.20;12.30;;;6.60;99.90;;;;;;5066144;28;20497;-74
2020/12/18 09:53:04;;;;;;;13.25;12.23;;;6.60;99.90;;;;;;5066741;28;20494;-74
2020/12/18 09:55:31;;;;;;;13.63;12.63;;;6.70;99.90;;;;;;5044928;28;20049;-74
2020/12/18 09:57:57;;;;;;;13.20;12.10;;;6.70;99.90;;;;;;5029980;28;20136;-73
2020/12/18 10:00:23;;;;;;;12.77;11.82;;;6.70;99.90;;;;;;5065747;28;20051;-72
2020/12/18 10:02:50;;;;;;;13.95;11.93;;;6.80;99.90;;;;;;5033188;28;20052;-72
2020/12/18 10:05:16;;;;;;;12.32;11.43;;;6.70;99.90;;;;;;5065417;28;20166;-73
2020/12/18 10:07:42;;;;;;;14.15;12.38;;;6.60;99.90;;;;;;5065627;28;20209;-73
2020/12/18 10:10:10;;;;;;;12.57;11.32;;;6.70;99.90;;;;;;5048036;28;20040;-72
2020/12/18 10:12:37;;;;;;;13.65;12.35;;;6.70;99.90;;;;;;5057703;28;20255;-72
2020/12/18 10:15:04;;;;;;;13.93;12.80;;;6.80;99.90;;;;;;5048473;28;20059;-72
2020/12/18 10:17:30;;;;;;;14.52;13.32;;;6.90;99.90;;;;;;5065944;28;20045;-72
2020/12/18 10:19:56;;;;;;;15.05;13.77;;;6.60;99.90;;;;;;5048057;28;20136;-73
2020/12/18 10:22:23;;;;;;;14.13;12.85;;;6.60;99.90;;;;;;5048444;28;20052;-73
2020/12/18 10:24:49;;;;;;;13.07;11.80;;;6.50;99.90;;;;;;5066900;28;20067;-74
2020/12/18 10:27:16;;;;;;;14.00;12.88;;;6.40;99.90;;;;;;5046768;28;20047;-73
2020/12/18 10:29:42;;;;;;;13.60;12.30;;;6.30;99.90;;;;;;5044113;28;20132;-74
2020/12/18 10:32:08;;;;;;;14.80;12.63;;;6.30;99.90;;;;;;5048397;28;20506;-79
2020/12/18 10:34:35;;;;;;;14.70;13.20;;;6.20;99.90;;;;;;5047980;28;20044;-74
2020/12/18 10:37:01;;;;;;;14.10;12.38;;;6.30;99.90;;;;;;5047458;28;20498;-73
2020/12/18 10:39:27;;;;;;;15.73;13.60;;;6.20;99.90;;;;;;5064479;28;20052;-74
2020/12/18 10:41:54;;;;;;;19.30;13.70;;;6.10;99.90;;;;;;5056705;28;20064;-72
2020/12/18 10:44:21;;;;;;;16.42;13.73;;;6.00;99.90;;;;;;5079817;28;20143;-71
2020/12/18 10:46:48;;;;;;;15.15;12.35;;;6.00;99.90;;;;;;5080999;28;20062;-72
2020/12/18 10:49:17;;;;;;;14.38;12.90;;;6.00;99.90;;;;;;5056558;28;20056;-73
2020/12/18 10:51:45;;;;;;;13.82;12.38;;;6.00;99.90;;;;;;5055866;28;20143;-73
2020/12/18 10:54:12;;;;;;;14.10;12.13;;;6.00;99.90;;;;;;5053478;28;20657;-70
2020/12/18 10:56:40;;;;;;;13.75;11.32;;;6.10;99.90;;;;;;5046446;28;20056;-72
2020/12/18 10:59:06;;;;;;;14.30;12.73;;;6.10;99.90;;;;;;5063852;28;20427;-71
2020/12/18 11:01:33;;;;;;;14.60;12.85;;;6.10;99.90;;;;;;5062373;28;20056;-71
2020/12/18 11:03:59;;;;;;;13.43;12.13;;;6.10;99.90;;;;;;5064244;28;20062;-71
2020/12/18 11:06:25;;;;;;;13.55;12.15;;;6.20;99.90;;;;;;5065004;28;20051;-71
2020/12/18 11:08:52;;;;;;;13.18;11.88;;;6.30;99.90;;;;;;5065646;28;20044;-71
2020/12/18 11:11:18;;;;;;;13.27;11.85;;;6.30;99.90;;;;;;5064403;28;20699;-71
2020/12/18 11:13:44;;;;;;;12.23;11.13;;;6.50;99.90;;;;;;5063767;28;20242;-72
2020/12/18 11:16:11;;;;;;;12.18;11.00;;;6.50;99.90;;;;;;5064485;28;20246;-71
2020/12/18 11:18:38;;;;;;;14.77;11.80;;;6.60;99.90;;;;;;5064304;28;20044;-71
2020/12/18 11:21:05;;;;;;;12.55;11.35;;;6.70;99.90;;;;;;5056509;28;20140;-71
2020/12/18 11:23:32;;;;;;;11.80;10.80;;;6.80;99.90;;;;;;5063660;28;20084;-71
2020/12/18 11:25:59;;;;;;;10.95;10.13;;;6.80;99.90;;;;;;5061852;28;20524;-72
2020/12/18 11:28:25;;;;;;;12.50;11.40;;;6.80;99.90;;;;;;5063024;28;20131;-71
2020/12/18 11:30:51;;;;;;;12.70;11.50;;;6.90;99.90;;;;;;5064457;28;20040;-72
2020/12/18 11:33:17;;;;;;;12.73;11.57;;;6.90;99.90;;;;;;5064908;28;20051;-72
2020/12/18 11:35:44;;;;;;;12.50;11.35;;;6.90;99.90;;;;;;5024175;28;20041;-72
2020/12/18 11:38:11;;;;;;;12.32;11.23;;;7.10;99.90;;;;;;5026652;28;20044;-72
2020/12/18 11:40:38;;;;;;;13.00;11.85;;;7.00;99.90;;;;;;5054933;28;20131;-72
2020/12/18 11:43:04;;;;;;;12.55;11.55;;;7.00;99.90;;;;;;5038091;28;20059;-72
2020/12/18 11:45:32;;;;;;;12.40;11.32;;;7.00;99.90;;;;;;5062918;28;20405;-71
2020/12/18 11:47:59;;;;;;;13.27;12.13;;;7.00;99.90;;;;;;5063107;28;20049;-72
2020/12/18 11:50:28;;;;;;;12.80;11.80;;;7.00;99.90;;;;;;5060142;28;20060;-72
2020/12/18 11:52:58;;;;;;;12.73;11.60;;;7.10;99.90;;;;;;5035079;28;20053;-71
2020/12/18 11:55:25;;;;;;;13.57;11.00;;;7.10;99.90;;;;;;5055746;28;20040;-72
2020/12/18 11:57:52;;;;;;;13.52;12.13;;;7.20;99.90;;;;;;5062602;28;20394;-72
2020/12/18 12:00:19;;;;;;;35.15;19.20;;;7.30;99.90;;;;;;5043606;28;20059;-71
2020/12/18 12:02:55;;;;;;;14.00;12.55;;;7.30;99.90;;;;;;5042470;28;20067;-72
2020/12/18 12:05:23;;;;;;;12.65;11.52;;;7.40;99.90;;;;;;5044025;28;20053;-72
2020/12/18 12:07:50;;;;;;;12.90;11.73;;;7.40;99.90;;;;;;5044268;28;20136;-71
2020/12/18 12:10:17;;;;;;;12.95;11.85;;;7.40;99.90;;;;;;5046964;28;20143;-71
2020/12/18 12:12:47;;;;;;;11.88;11.07;;;7.40;99.90;;;;;;5056348;28;20044;-72
2020/12/18 12:15:15;;;;;;;13.25;12.25;;;7.50;99.90;;;;;;5069124;28;20052;-73
2020/12/18 12:17:42;;;;;;;14.23;13.13;;;7.70;99.90;;;;;;5046684;28;20096;-72
2020/12/18 12:20:08;;;;;;;12.93;11.95;;;7.80;99.90;;;;;;5040902;28;20071;-73
2020/12/18 12:22:34;;;;;;;13.00;12.05;;;7.90;99.90;;;;;;5044097;28;20203;-72
2020/12/18 12:25:00;;;;;;;14.15;12.88;;;7.90;99.90;;;;;;5058416;28;20055;-73
2020/12/18 12:27:27;;;;;;;12.10;11.25;;;8.00;99.90;;;;;;5062309;28;20055;-72
2020/12/18 12:29:54;;;;;;;15.73;14.32;;;8.10;99.90;;;;;;5056981;28;20051;-72
2020/12/18 12:32:21;;;;;;;13.63;12.43;;;8.20;99.90;;;;;;5047693;28;20045;-73
2020/12/18 12:34:48;;;;;;;14.10;12.90;;;8.30;99.90;;;;;;5046910;28;20041;-72
2020/12/18 12:37:15;;;;;;;14.23;13.10;;;8.40;99.90;;;;;;5053462;28;20111;-72
2020/12/18 12:39:43;;;;;;;11.60;10.90;;;8.50;99.90;;;;;;5071138;28;20049;-73
2020/12/18 12:42:10;;;;;;;11.82;10.90;;;8.60;99.90;;;;;;5053365;28;20144;-72
2020/12/18 12:44:36;;;;;;;13.00;11.77;;;8.70;99.90;;;;;;5062435;28;20390;-72
2020/12/18 12:47:02;;;;;;;11.65;10.75;;;8.70;99.90;;;;;;5063042;28;20053;-72
2020/12/18 12:49:29;;;;;;;12.90;11.88;;;8.90;99.90;;;;;;5064084;28;20067;-73
2020/12/18 12:51:56;;;;;;;13.18;11.98;;;8.90;99.90;;;;;;5045687;28;20040;-73
2020/12/18 12:54:24;;;;;;;11.82;11.18;;;9.00;99.90;;;;;;5062833;28;20071;-72
2020/12/18 12:56:53;;;;;;;11.68;10.98;;;9.00;99.90;;;;;;5063181;28;20044;-72
2020/12/18 12:59:19;;;;;;;12.55;11.52;;;9.00;99.90;;;;;;5046206;28;20040;-72
2020/12/18 13:01:46;;;;;;;12.05;11.18;;;9.00;99.90;;;;;;5059977;28;20036;-72